Terminal Aerodrome Forecast
Issued by NWS Boise, ID

Home | Current Version | Previous Version | Text Only | Print | Product List | Glossary On
Versions: 1 2 3 4 5 6 7 8 9 10 11 12 13 14 15
000
FTUS45 KBOI 232327
TAFBNO
TAF
KBNO 232327Z 2400/2424 19006KT P6SM BKN150
     FM240800 VRB05KT P6SM VCSH OVC050
     FM241400 14007KT 6SM -RA OVC025=

USA.gov is the U.S. government's official web portal to all federal, state and local government web resources and services.